Pagrindinis puslapis
METAR-TAF:

METAR-TAF

Oro uostai :

Qaisumah, Saudo Arabija

platuma: 28-19N, ilguma: 046-07E, Aukštis: 358 m

Dabartinis oras

Ataskaita buvo paskelbta 24 minutes, ne 15:00 UTC
Vėjas 9 kt iš Šiaurės/Šiaurės Vakarų
Temperatūra 36°C
Drėgmė 24%
Slėgis 1009 hPa
Matomumas 10 km arba daugiau
nėra debesų žemiau 1500 m ir nėra kamuolinių lietaus debesų

METAR: OEPA 281500Z 33009KT CAVOK 36/12 Q1009 NOSIG

Laikas: 18:24 (15:24 UTC)

Prognozė

Ataskaita buvo paskelbta 4 valandos ir 24 minutes, ne 11:00 UTC
Prognozė galioja nuo 28 metu 12 UTC su 29 metu 18 UTC
Vėjas 14 kt iš Šiaurės/Šiaurės Vakarų
Matomumas 10 km arba daugiau
nėra debesų žemiau 1500 m ir nėra kamuolinių lietaus debesų
Tapsmas
nuo 28 metu 18 UTC su 28 metu 20 UTC
Vėjas 6 kt iš Vakarų

TAF: OEPA 281100Z 2812/2918 33014KT CAVOK BECMG 2818/2820 27006KT

Orai ataskaitas ir orų prognozės (METAR, TAF).

turimą stotys yra geltonos ir raudonos taškus žemėlapyje.

Perkelti pele per norėdami pamatyti stoties vardą.

Tada spustelėkite, norėdami matyti oro stebėjimo ir prognozės.

Norėdami pakeisti žemėlapį: spustelėkite ant žalios mygtukų su juodo kryžiaus žemyn,; žalią mygtuką su brūkšneliu, jei norite nutolinti; arba žalių rodyklių gretimoms žemėlapius.


METAR-TAF: